sensor_id;sensor_type;location;lat;lon;timestamp;P1;durP1;ratioP1;P2;durP2;ratioP2
54613;SDS011;40514;52.758;6.360;2022-08-21T00:01:46;8.67;;;3.83;;
54613;SDS011;40514;52.758;6.360;2022-08-21T00:04:11;7.70;;;3.67;;
54613;SDS011;40514;52.758;6.360;2022-08-21T00:06:37;6.63;;;3.50;;
54613;SDS011;40514;52.758;6.360;2022-08-21T00:09:04;7.60;;;4.03;;
54613;SDS011;40514;52.758;6.360;2022-08-21T00:11:31;11.07;;;4.13;;
54613;SDS011;40514;52.758;6.360;2022-08-21T00:16:23;8.30;;;4.07;;
54613;SDS011;40514;52.758;6.360;2022-08-21T00:18:49;9.13;;;4.13;;
54613;SDS011;40514;52.758;6.360;2022-08-21T00:21:15;5.97;;;4.00;;
54613;SDS011;40514;52.758;6.360;2022-08-21T00:23:41;6.97;;;4.07;;
54613;SDS011;40514;52.758;6.360;2022-08-21T00:28:33;9.52;;;4.60;;
54613;SDS011;40514;52.758;6.360;2022-08-21T00:30:59;8.00;;;4.55;;
54613;SDS011;40514;52.758;6.360;2022-08-21T00:33:25;7.53;;;5.05;;
54613;SDS011;40514;52.758;6.360;2022-08-21T00:35:51;9.00;;;4.82;;
54613;SDS011;40514;52.758;6.360;2022-08-21T00:38:17;7.70;;;5.25;;
54613;SDS011;40514;52.758;6.360;2022-08-21T00:40:45;6.78;;;4.28;;
54613;SDS011;40514;52.758;6.360;2022-08-21T00:43:18;8.20;;;4.95;;
54613;SDS011;40514;52.758;6.360;2022-08-21T00:45:47;6.85;;;4.13;;
54613;SDS011;40514;52.758;6.360;2022-08-21T00:48:13;6.97;;;4.90;;
54613;SDS011;40514;52.758;6.360;2022-08-21T00:50:44;9.97;;;4.60;;
54613;SDS011;40514;52.758;6.360;2022-08-21T00:53:15;5.80;;;4.72;;
54613;SDS011;40514;52.758;6.360;2022-08-21T00:55:42;7.97;;;5.15;;
54613;SDS011;40514;52.758;6.360;2022-08-21T00:58:09;5.82;;;4.43;;
54613;SDS011;40514;52.758;6.360;2022-08-21T01:00:38;8.20;;;5.70;;
54613;SDS011;40514;52.758;6.360;2022-08-21T01:03:08;7.43;;;5.53;;
54613;SDS011;40514;52.758;6.360;2022-08-21T01:05:36;7.80;;;5.10;;
54613;SDS011;40514;52.758;6.360;2022-08-21T01:08:03;8.30;;;5.10;;
54613;SDS011;40514;52.758;6.360;2022-08-21T01:12:55;5.82;;;4.55;;
54613;SDS011;40514;52.758;6.360;2022-08-21T01:15:23;8.13;;;5.18;;
54613;SDS011;40514;52.758;6.360;2022-08-21T01:17:53;7.35;;;5.03;;
54613;SDS011;40514;52.758;6.360;2022-08-21T01:20:19;7.77;;;5.63;;
54613;SDS011;40514;52.758;6.360;2022-08-21T01:22:45;10.15;;;6.13;;
54613;SDS011;40514;52.758;6.360;2022-08-21T01:25:11;10.97;;;6.73;;
54613;SDS011;40514;52.758;6.360;2022-08-21T01:27:39;10.38;;;6.32;;
54613;SDS011;40514;52.758;6.360;2022-08-21T01:30:11;9.70;;;6.27;;
54613;SDS011;40514;52.758;6.360;2022-08-21T01:32:39;9.93;;;6.63;;
54613;SDS011;40514;52.758;6.360;2022-08-21T01:35:06;9.82;;;6.95;;
54613;SDS011;40514;52.758;6.360;2022-08-21T01:37:32;8.90;;;6.47;;
54613;SDS011;40514;52.758;6.360;2022-08-21T01:39:58;8.57;;;6.78;;
54613;SDS011;40514;52.758;6.360;2022-08-21T01:42:24;9.33;;;6.97;;
54613;SDS011;40514;52.758;6.360;2022-08-21T01:44:49;9.93;;;6.57;;
54613;SDS011;40514;52.758;6.360;2022-08-21T01:47:15;9.57;;;6.20;;
54613;SDS011;40514;52.758;6.360;2022-08-21T01:49:41;9.33;;;6.20;;
54613;SDS011;40514;52.758;6.360;2022-08-21T01:52:08;10.25;;;6.82;;
54613;SDS011;40514;52.758;6.360;2022-08-21T01:54:35;8.13;;;6.75;;
54613;SDS011;40514;52.758;6.360;2022-08-21T01:57:01;9.43;;;7.10;;
54613;SDS011;40514;52.758;6.360;2022-08-21T01:59:27;10.77;;;7.28;;
54613;SDS011;40514;52.758;6.360;2022-08-21T02:01:54;13.95;;;7.00;;
54613;SDS011;40514;52.758;6.360;2022-08-21T02:04:20;10.10;;;6.68;;
54613;SDS011;40514;52.758;6.360;2022-08-21T02:06:46;6.72;;;6.00;;
54613;SDS011;40514;52.758;6.360;2022-08-21T02:09:12;7.28;;;6.13;;
54613;SDS011;40514;52.758;6.360;2022-08-21T02:11:39;10.80;;;6.32;;
54613;SDS011;40514;52.758;6.360;2022-08-21T02:14:06;9.85;;;6.00;;
54613;SDS011;40514;52.758;6.360;2022-08-21T02:16:36;9.82;;;5.90;;
54613;SDS011;40514;52.758;6.360;2022-08-21T02:19:02;6.68;;;5.10;;
54613;SDS011;40514;52.758;6.360;2022-08-21T02:21:29;8.50;;;5.20;;
54613;SDS011;40514;52.758;6.360;2022-08-21T02:23:55;6.57;;;4.10;;
54613;SDS011;40514;52.758;6.360;2022-08-21T02:26:20;6.95;;;5.30;;
54613;SDS011;40514;52.758;6.360;2022-08-21T02:28:46;7.43;;;5.00;;
54613;SDS011;40514;52.758;6.360;2022-08-21T02:31:12;6.70;;;4.93;;
54613;SDS011;40514;52.758;6.360;2022-08-21T02:33:37;7.37;;;4.33;;
54613;SDS011;40514;52.758;6.360;2022-08-21T02:36:04;6.72;;;4.95;;
54613;SDS011;40514;52.758;6.360;2022-08-21T02:38:32;8.25;;;5.30;;
54613;SDS011;40514;52.758;6.360;2022-08-21T02:40:59;6.45;;;4.78;;
54613;SDS011;40514;52.758;6.360;2022-08-21T02:43:26;7.85;;;4.30;;
54613;SDS011;40514;52.758;6.360;2022-08-21T02:45:53;6.53;;;4.60;;
54613;SDS011;40514;52.758;6.360;2022-08-21T02:48:22;6.13;;;4.57;;
54613;SDS011;40514;52.758;6.360;2022-08-21T02:50:54;7.45;;;5.18;;
54613;SDS011;40514;52.758;6.360;2022-08-21T02:53:22;5.55;;;4.60;;
54613;SDS011;40514;52.758;6.360;2022-08-21T02:55:49;6.45;;;5.50;;
54613;SDS011;40514;52.758;6.360;2022-08-21T02:58:16;6.78;;;4.80;;
54613;SDS011;40514;52.758;6.360;2022-08-21T03:00:48;6.93;;;5.15;;
54613;SDS011;40514;52.758;6.360;2022-08-21T03:05:40;5.50;;;4.65;;
54613;SDS011;40514;52.758;6.360;2022-08-21T03:08:08;7.05;;;5.03;;
54613;SDS011;40514;52.758;6.360;2022-08-21T03:10:36;8.63;;;5.00;;
54613;SDS011;40514;52.758;6.360;2022-08-21T03:13:04;8.82;;;5.88;;
54613;SDS011;40514;52.758;6.360;2022-08-21T03:15:30;8.45;;;5.97;;
54613;SDS011;40514;52.758;6.360;2022-08-21T03:17:57;6.70;;;5.07;;
54613;SDS011;40514;52.758;6.360;2022-08-21T03:20:24;9.63;;;5.93;;
54613;SDS011;40514;52.758;6.360;2022-08-21T03:22:52;8.95;;;6.00;;
54613;SDS011;40514;52.758;6.360;2022-08-21T03:25:19;8.40;;;5.72;;
54613;SDS011;40514;52.758;6.360;2022-08-21T03:27:47;7.07;;;5.53;;
54613;SDS011;40514;52.758;6.360;2022-08-21T03:30:16;8.85;;;5.95;;
54613;SDS011;40514;52.758;6.360;2022-08-21T03:32:43;8.85;;;6.00;;
54613;SDS011;40514;52.758;6.360;2022-08-21T03:35:09;9.90;;;6.47;;
54613;SDS011;40514;52.758;6.360;2022-08-21T03:37:34;8.13;;;5.40;;
54613;SDS011;40514;52.758;6.360;2022-08-21T03:40:02;6.07;;;5.30;;
54613;SDS011;40514;52.758;6.360;2022-08-21T03:42:29;9.13;;;6.10;;
54613;SDS011;40514;52.758;6.360;2022-08-21T03:44:55;8.87;;;6.20;;
54613;SDS011;40514;52.758;6.360;2022-08-21T03:47:20;9.40;;;6.47;;
54613;SDS011;40514;52.758;6.360;2022-08-21T03:49:47;10.90;;;6.80;;
54613;SDS011;40514;52.758;6.360;2022-08-21T03:52:13;8.73;;;7.18;;
54613;SDS011;40514;52.758;6.360;2022-08-21T03:54:38;11.67;;;6.97;;
54613;SDS011;40514;52.758;6.360;2022-08-21T03:57:04;12.02;;;7.97;;
54613;SDS011;40514;52.758;6.360;2022-08-21T03:59:30;9.90;;;7.53;;
54613;SDS011;40514;52.758;6.360;2022-08-21T04:01:56;11.57;;;7.30;;
54613;SDS011;40514;52.758;6.360;2022-08-21T04:04:24;11.30;;;7.65;;
54613;SDS011;40514;52.758;6.360;2022-08-21T04:06:51;10.95;;;7.95;;
54613;SDS011;40514;52.758;6.360;2022-08-21T04:09:17;11.10;;;7.93;;
54613;SDS011;40514;52.758;6.360;2022-08-21T04:11:43;10.07;;;7.35;;
54613;SDS011;40514;52.758;6.360;2022-08-21T04:14:10;10.27;;;7.90;;
54613;SDS011;40514;52.758;6.360;2022-08-21T04:16:36;10.90;;;7.13;;
54613;SDS011;40514;52.758;6.360;2022-08-21T04:19:02;11.38;;;7.38;;
54613;SDS011;40514;52.758;6.360;2022-08-21T04:21:28;9.70;;;7.27;;
54613;SDS011;40514;52.758;6.360;2022-08-21T04:23:54;10.38;;;6.75;;
54613;SDS011;40514;52.758;6.360;2022-08-21T04:26:20;10.27;;;7.50;;
54613;SDS011;40514;52.758;6.360;2022-08-21T04:28:46;10.57;;;7.40;;
54613;SDS011;40514;52.758;6.360;2022-08-21T04:31:12;7.90;;;6.97;;
54613;SDS011;40514;52.758;6.360;2022-08-21T04:33:38;9.60;;;7.10;;
54613;SDS011;40514;52.758;6.360;2022-08-21T04:36:03;12.00;;;7.23;;
54613;SDS011;40514;52.758;6.360;2022-08-21T04:38:29;9.50;;;6.72;;
54613;SDS011;40514;52.758;6.360;2022-08-21T04:40:56;10.90;;;7.05;;
54613;SDS011;40514;52.758;6.360;2022-08-21T04:43:22;9.00;;;7.20;;
54613;SDS011;40514;52.758;6.360;2022-08-21T04:45:48;9.97;;;6.80;;
54613;SDS011;40514;52.758;6.360;2022-08-21T04:48:15;12.35;;;6.70;;
54613;SDS011;40514;52.758;6.360;2022-08-21T04:50:56;12.88;;;7.68;;
54613;SDS011;40514;52.758;6.360;2022-08-21T04:55:56;10.80;;;7.32;;
54613;SDS011;40514;52.758;6.360;2022-08-21T04:58:25;10.73;;;6.90;;
54613;SDS011;40514;52.758;6.360;2022-08-21T05:00:52;9.00;;;7.28;;
54613;SDS011;40514;52.758;6.360;2022-08-21T05:03:20;9.70;;;6.80;;
54613;SDS011;40514;52.758;6.360;2022-08-21T05:05:46;10.68;;;7.93;;
54613;SDS011;40514;52.758;6.360;2022-08-21T05:08:14;10.82;;;7.00;;
54613;SDS011;40514;52.758;6.360;2022-08-21T05:10:42;9.52;;;7.15;;
54613;SDS011;40514;52.758;6.360;2022-08-21T05:13:09;9.30;;;7.10;;
54613;SDS011;40514;52.758;6.360;2022-08-21T05:15:37;10.30;;;7.63;;
54613;SDS011;40514;52.758;6.360;2022-08-21T05:18:03;10.35;;;7.80;;
54613;SDS011;40514;52.758;6.360;2022-08-21T05:20:31;9.20;;;6.75;;
54613;SDS011;40514;52.758;6.360;2022-08-21T05:22:59;9.65;;;6.75;;
54613;SDS011;40514;52.758;6.360;2022-08-21T05:25:25;11.85;;;7.00;;
54613;SDS011;40514;52.758;6.360;2022-08-21T05:27:51;9.67;;;6.93;;
54613;SDS011;40514;52.758;6.360;2022-08-21T05:30:16;10.17;;;7.10;;
54613;SDS011;40514;52.758;6.360;2022-08-21T05:32:42;11.03;;;6.93;;
54613;SDS011;40514;52.758;6.360;2022-08-21T05:35:08;8.87;;;6.73;;
54613;SDS011;40514;52.758;6.360;2022-08-21T05:37:33;10.07;;;7.00;;
54613;SDS011;40514;52.758;6.360;2022-08-21T05:40:00;12.98;;;6.85;;
54613;SDS011;40514;52.758;6.360;2022-08-21T05:44:52;9.02;;;6.32;;
54613;SDS011;40514;52.758;6.360;2022-08-21T05:47:18;10.03;;;6.93;;
54613;SDS011;40514;52.758;6.360;2022-08-21T05:49:43;10.97;;;6.63;;
54613;SDS011;40514;52.758;6.360;2022-08-21T05:52:09;11.40;;;6.37;;
54613;SDS011;40514;52.758;6.360;2022-08-21T05:54:35;9.07;;;6.43;;
54613;SDS011;40514;52.758;6.360;2022-08-21T05:57:02;10.13;;;6.22;;
54613;SDS011;40514;52.758;6.360;2022-08-21T05:59:28;9.60;;;5.90;;
54613;SDS011;40514;52.758;6.360;2022-08-21T06:01:53;12.47;;;6.53;;
54613;SDS011;40514;52.758;6.360;2022-08-21T06:04:19;13.00;;;7.30;;
54613;SDS011;40514;52.758;6.360;2022-08-21T06:06:44;9.97;;;6.10;;
54613;SDS011;40514;52.758;6.360;2022-08-21T06:11:37;10.55;;;6.47;;
54613;SDS011;40514;52.758;6.360;2022-08-21T06:14:02;10.03;;;6.33;;
54613;SDS011;40514;52.758;6.360;2022-08-21T06:16:29;10.60;;;6.45;;
54613;SDS011;40514;52.758;6.360;2022-08-21T06:18:54;10.93;;;6.13;;
54613;SDS011;40514;52.758;6.360;2022-08-21T06:21:20;9.57;;;6.33;;
54613;SDS011;40514;52.758;6.360;2022-08-21T06:23:45;11.77;;;6.57;;
54613;SDS011;40514;52.758;6.360;2022-08-21T06:26:12;12.00;;;6.63;;
54613;SDS011;40514;52.758;6.360;2022-08-21T06:28:39;11.68;;;5.97;;
54613;SDS011;40514;52.758;6.360;2022-08-21T06:33:39;10.43;;;6.38;;
54613;SDS011;40514;52.758;6.360;2022-08-21T06:36:05;12.20;;;5.90;;
54613;SDS011;40514;52.758;6.360;2022-08-21T06:38:34;12.90;;;6.43;;
54613;SDS011;40514;52.758;6.360;2022-08-21T06:41:00;12.05;;;6.28;;
54613;SDS011;40514;52.758;6.360;2022-08-21T06:43:26;10.63;;;5.63;;
54613;SDS011;40514;52.758;6.360;2022-08-21T06:45:52;12.23;;;6.20;;
54613;SDS011;40514;52.758;6.360;2022-08-21T06:48:17;11.07;;;5.80;;
54613;SDS011;40514;52.758;6.360;2022-08-21T06:50:43;14.40;;;6.47;;
54613;SDS011;40514;52.758;6.360;2022-08-21T06:53:10;12.97;;;5.53;;
54613;SDS011;40514;52.758;6.360;2022-08-21T06:55:37;10.85;;;5.75;;
54613;SDS011;40514;52.758;6.360;2022-08-21T07:00:29;10.35;;;5.20;;
54613;SDS011;40514;52.758;6.360;2022-08-21T07:02:55;8.40;;;5.32;;
54613;SDS011;40514;52.758;6.360;2022-08-21T07:05:21;17.80;;;7.40;;
54613;SDS011;40514;52.758;6.360;2022-08-21T07:07:50;12.73;;;5.57;;
54613;SDS011;40514;52.758;6.360;2022-08-21T07:10:15;8.80;;;5.03;;
54613;SDS011;40514;52.758;6.360;2022-08-21T07:12:41;13.32;;;5.75;;
54613;SDS011;40514;52.758;6.360;2022-08-21T07:15:07;9.90;;;5.35;;
54613;SDS011;40514;52.758;6.360;2022-08-21T07:17:33;11.35;;;5.28;;
54613;SDS011;40514;52.758;6.360;2022-08-21T07:19:59;11.37;;;5.70;;
54613;SDS011;40514;52.758;6.360;2022-08-21T07:22:24;10.77;;;5.73;;
54613;SDS011;40514;52.758;6.360;2022-08-21T07:24:52;13.63;;;5.28;;
54613;SDS011;40514;52.758;6.360;2022-08-21T07:27:18;9.20;;;5.10;;
54613;SDS011;40514;52.758;6.360;2022-08-21T07:29:44;13.17;;;5.30;;
54613;SDS011;40514;52.758;6.360;2022-08-21T07:32:09;11.73;;;4.83;;
54613;SDS011;40514;52.758;6.360;2022-08-21T07:34:35;11.73;;;5.13;;
54613;SDS011;40514;52.758;6.360;2022-08-21T07:37:02;10.05;;;4.38;;
54613;SDS011;40514;52.758;6.360;2022-08-21T07:39:29;10.48;;;4.70;;
54613;SDS011;40514;52.758;6.360;2022-08-21T07:44:20;8.15;;;4.30;;
54613;SDS011;40514;52.758;6.360;2022-08-21T07:46:45;9.20;;;4.50;;
54613;SDS011;40514;52.758;6.360;2022-08-21T07:49:11;10.67;;;4.50;;
54613;SDS011;40514;52.758;6.360;2022-08-21T07:51:36;11.80;;;4.57;;
54613;SDS011;40514;52.758;6.360;2022-08-21T07:54:02;8.67;;;4.23;;
54613;SDS011;40514;52.758;6.360;2022-08-21T07:56:28;9.37;;;4.03;;
54613;SDS011;40514;52.758;6.360;2022-08-21T07:58:55;10.73;;;4.13;;
54613;SDS011;40514;52.758;6.360;2022-08-21T08:01:22;8.43;;;3.88;;
54613;SDS011;40514;52.758;6.360;2022-08-21T08:03:48;8.80;;;3.97;;
54613;SDS011;40514;52.758;6.360;2022-08-21T08:06:13;9.10;;;3.90;;
54613;SDS011;40514;52.758;6.360;2022-08-21T08:11:06;8.90;;;3.80;;
54613;SDS011;40514;52.758;6.360;2022-08-21T08:13:39;12.02;;;4.20;;
54613;SDS011;40514;52.758;6.360;2022-08-21T08:16:09;9.00;;;4.18;;
54613;SDS011;40514;52.758;6.360;2022-08-21T08:18:34;6.32;;;3.00;;
54613;SDS011;40514;52.758;6.360;2022-08-21T08:21:00;6.50;;;2.90;;
54613;SDS011;40514;52.758;6.360;2022-08-21T08:23:25;8.47;;;2.80;;
54613;SDS011;40514;52.758;6.360;2022-08-21T08:25:52;8.27;;;2.92;;
54613;SDS011;40514;52.758;6.360;2022-08-21T08:28:18;7.93;;;1.95;;
54613;SDS011;40514;52.758;6.360;2022-08-21T08:30:44;7.20;;;2.40;;
54613;SDS011;40514;52.758;6.360;2022-08-21T08:33:10;8.10;;;2.28;;
54613;SDS011;40514;52.758;6.360;2022-08-21T08:35:36;6.90;;;1.90;;
54613;SDS011;40514;52.758;6.360;2022-08-21T08:38:02;6.90;;;2.28;;
54613;SDS011;40514;52.758;6.360;2022-08-21T08:40:35;4.68;;;1.92;;
54613;SDS011;40514;52.758;6.360;2022-08-21T08:43:06;7.43;;;1.98;;
54613;SDS011;40514;52.758;6.360;2022-08-21T08:45:33;7.55;;;2.28;;
54613;SDS011;40514;52.758;6.360;2022-08-21T08:48:03;8.35;;;2.22;;
54613;SDS011;40514;52.758;6.360;2022-08-21T08:53:18;6.75;;;2.00;;
54613;SDS011;40514;52.758;6.360;2022-08-21T08:56:02;7.93;;;2.10;;
54613;SDS011;40514;52.758;6.360;2022-08-21T08:58:30;8.70;;;2.00;;
54613;SDS011;40514;52.758;6.360;2022-08-21T09:01:01;6.80;;;2.03;;
54613;SDS011;40514;52.758;6.360;2022-08-21T09:03:30;7.00;;;2.10;;
54613;SDS011;40514;52.758;6.360;2022-08-21T09:06:04;9.57;;;2.60;;
54613;SDS011;40514;52.758;6.360;2022-08-21T09:08:41;9.20;;;2.28;;
54613;SDS011;40514;52.758;6.360;2022-08-21T09:11:15;6.30;;;2.42;;
54613;SDS011;40514;52.758;6.360;2022-08-21T09:14:14;9.05;;;2.55;;
54613;SDS011;40514;52.758;6.360;2022-08-21T09:25:26;7.68;;;2.30;;
54613;SDS011;40514;52.758;6.360;2022-08-21T09:27:55;8.77;;;2.63;;
54613;SDS011;40514;52.758;6.360;2022-08-21T09:30:23;8.13;;;2.58;;
54613;SDS011;40514;52.758;6.360;2022-08-21T09:32:52;7.55;;;2.30;;
54613;SDS011;40514;52.758;6.360;2022-08-21T09:37:50;8.68;;;2.80;;
54613;SDS011;40514;52.758;6.360;2022-08-21T09:43:18;10.02;;;2.33;;
54613;SDS011;40514;52.758;6.360;2022-08-21T09:45:47;9.70;;;2.42;;
54613;SDS011;40514;52.758;6.360;2022-08-21T09:48:18;6.80;;;2.33;;
54613;SDS011;40514;52.758;6.360;2022-08-21T09:50:45;7.00;;;2.13;;
54613;SDS011;40514;52.758;6.360;2022-08-21T09:53:30;5.43;;;2.00;;
54613;SDS011;40514;52.758;6.360;2022-08-21T09:56:01;7.88;;;2.13;;
54613;SDS011;40514;52.758;6.360;2022-08-21T09:58:48;9.00;;;2.40;;
54613;SDS011;40514;52.758;6.360;2022-08-21T10:01:19;6.97;;;2.17;;
54613;SDS011;40514;52.758;6.360;2022-08-21T10:04:01;5.30;;;2.03;;
54613;SDS011;40514;52.758;6.360;2022-08-21T10:06:32;7.20;;;2.47;;
54613;SDS011;40514;52.758;6.360;2022-08-21T10:09:06;6.25;;;2.10;;
54613;SDS011;40514;52.758;6.360;2022-08-21T10:11:37;6.10;;;2.20;;
54613;SDS011;40514;52.758;6.360;2022-08-21T10:14:16;6.88;;;2.05;;
54613;SDS011;40514;52.758;6.360;2022-08-21T10:22:34;6.55;;;2.83;;
54613;SDS011;40514;52.758;6.360;2022-08-21T10:27:57;6.43;;;2.10;;
54613;SDS011;40514;52.758;6.360;2022-08-21T10:30:40;8.23;;;2.22;;
54613;SDS011;40514;52.758;6.360;2022-08-21T10:35:45;6.82;;;1.90;;
54613;SDS011;40514;52.758;6.360;2022-08-21T10:38:34;7.68;;;2.28;;
54613;SDS011;40514;52.758;6.360;2022-08-21T10:44:39;7.65;;;2.35;;
54613;SDS011;40514;52.758;6.360;2022-08-21T10:46:54;6.50;;;1.98;;
54613;SDS011;40514;52.758;6.360;2022-08-21T10:52:19;7.38;;;2.08;;
54613;SDS011;40514;52.758;6.360;2022-08-21T10:57:57;7.20;;;2.10;;
54613;SDS011;40514;52.758;6.360;2022-08-21T11:00:39;7.80;;;2.30;;
54613;SDS011;40514;52.758;6.360;2022-08-21T11:03:21;6.97;;;2.20;;
54613;SDS011;40514;52.758;6.360;2022-08-21T11:05:55;7.55;;;2.30;;
54613;SDS011;40514;52.758;6.360;2022-08-21T11:08:35;5.82;;;2.00;;
54613;SDS011;40514;52.758;6.360;2022-08-21T11:11:06;7.97;;;2.33;;
54613;SDS011;40514;52.758;6.360;2022-08-21T11:13:43;6.90;;;2.25;;
54613;SDS011;40514;52.758;6.360;2022-08-21T11:16:16;5.47;;;1.92;;
54613;SDS011;40514;52.758;6.360;2022-08-21T11:18:53;5.13;;;2.10;;
54613;SDS011;40514;52.758;6.360;2022-08-21T11:21:41;7.38;;;1.98;;
54613;SDS011;40514;52.758;6.360;2022-08-21T11:24:27;5.15;;;1.83;;
54613;SDS011;40514;52.758;6.360;2022-08-21T11:27:50;6.38;;;2.15;;
54613;SDS011;40514;52.758;6.360;2022-08-21T11:29:55;6.45;;;1.75;;
54613;SDS011;40514;52.758;6.360;2022-08-21T11:32:45;5.95;;;1.92;;
54613;SDS011;40514;52.758;6.360;2022-08-21T11:44:10;8.35;;;2.38;;
54613;SDS011;40514;52.758;6.360;2022-08-21T11:47:05;7.03;;;2.42;;
54613;SDS011;40514;52.758;6.360;2022-08-21T11:49:49;7.00;;;2.30;;
54613;SDS011;40514;52.758;6.360;2022-08-21T11:52:38;5.93;;;1.80;;
54613;SDS011;40514;52.758;6.360;2022-08-21T11:55:35;6.25;;;2.20;;
54613;SDS011;40514;52.758;6.360;2022-08-21T11:58:20;5.03;;;1.88;;
54613;SDS011;40514;52.758;6.360;2022-08-21T12:00:57;7.40;;;2.40;;
54613;SDS011;40514;52.758;6.360;2022-08-21T12:03:32;5.95;;;2.22;;
54613;SDS011;40514;52.758;6.360;2022-08-21T12:06:02;7.05;;;2.13;;
54613;SDS011;40514;52.758;6.360;2022-08-21T12:08:34;9.65;;;2.55;;
54613;SDS011;40514;52.758;6.360;2022-08-21T12:13:29;6.38;;;2.10;;
54613;SDS011;40514;52.758;6.360;2022-08-21T12:16:05;7.05;;;2.58;;
54613;SDS011;40514;52.758;6.360;2022-08-21T12:18:38;8.75;;;2.38;;
54613;SDS011;40514;52.758;6.360;2022-08-21T12:21:23;7.35;;;2.33;;
54613;SDS011;40514;52.758;6.360;2022-08-21T12:26:52;5.93;;;2.22;;
54613;SDS011;40514;52.758;6.360;2022-08-21T12:29:29;9.00;;;2.20;;
54613;SDS011;40514;52.758;6.360;2022-08-21T12:32:19;6.18;;;2.05;;
54613;SDS011;40514;52.758;6.360;2022-08-21T12:34:50;5.80;;;2.10;;
54613;SDS011;40514;52.758;6.360;2022-08-21T12:37:34;6.63;;;2.15;;
54613;SDS011;40514;52.758;6.360;2022-08-21T12:40:14;6.97;;;2.58;;
54613;SDS011;40514;52.758;6.360;2022-08-21T12:42:47;6.47;;;2.33;;
54613;SDS011;40514;52.758;6.360;2022-08-21T12:47:48;6.88;;;2.45;;
54613;SDS011;40514;52.758;6.360;2022-08-21T12:50:32;6.18;;;2.00;;
54613;SDS011;40514;52.758;6.360;2022-08-21T12:53:08;8.75;;;2.85;;
54613;SDS011;40514;52.758;6.360;2022-08-21T12:55:42;8.38;;;2.65;;
54613;SDS011;40514;52.758;6.360;2022-08-21T12:58:18;8.43;;;2.30;;
54613;SDS011;40514;52.758;6.360;2022-08-21T13:03:13;9.57;;;2.20;;
54613;SDS011;40514;52.758;6.360;2022-08-21T13:05:39;8.00;;;2.80;;
54613;SDS011;40514;52.758;6.360;2022-08-21T13:10:32;6.57;;;2.17;;
54613;SDS011;40514;52.758;6.360;2022-08-21T13:13:01;8.02;;;2.30;;
54613;SDS011;40514;52.758;6.360;2022-08-21T13:15:30;8.35;;;2.50;;
54613;SDS011;40514;52.758;6.360;2022-08-21T13:17:59;6.55;;;2.60;;
54613;SDS011;40514;52.758;6.360;2022-08-21T13:20:33;6.47;;;2.30;;
54613;SDS011;40514;52.758;6.360;2022-08-21T13:23:01;6.68;;;2.38;;
54613;SDS011;40514;52.758;6.360;2022-08-21T13:25:34;7.90;;;2.83;;
54613;SDS011;40514;52.758;6.360;2022-08-21T13:28:08;6.05;;;2.13;;
54613;SDS011;40514;52.758;6.360;2022-08-21T13:30:43;7.05;;;1.90;;
54613;SDS011;40514;52.758;6.360;2022-08-21T13:33:09;7.45;;;2.10;;
54613;SDS011;40514;52.758;6.360;2022-08-21T13:38:21;8.70;;;2.20;;
54613;SDS011;40514;52.758;6.360;2022-08-21T13:41:02;7.90;;;2.35;;
54613;SDS011;40514;52.758;6.360;2022-08-21T13:43:43;9.85;;;2.40;;
54613;SDS011;40514;52.758;6.360;2022-08-21T13:46:12;7.20;;;2.10;;
54613;SDS011;40514;52.758;6.360;2022-08-21T13:48:39;6.20;;;2.15;;
54613;SDS011;40514;52.758;6.360;2022-08-21T13:51:07;9.20;;;2.40;;
54613;SDS011;40514;52.758;6.360;2022-08-21T13:53:36;7.57;;;2.30;;
54613;SDS011;40514;52.758;6.360;2022-08-21T13:56:21;9.68;;;2.75;;
54613;SDS011;40514;52.758;6.360;2022-08-21T13:58:52;6.85;;;2.20;;
54613;SDS011;40514;52.758;6.360;2022-08-21T14:01:19;6.65;;;2.33;;
54613;SDS011;40514;52.758;6.360;2022-08-21T14:03:49;8.70;;;2.47;;
54613;SDS011;40514;52.758;6.360;2022-08-21T14:06:20;7.07;;;2.15;;
54613;SDS011;40514;52.758;6.360;2022-08-21T14:08:49;6.10;;;2.10;;
54613;SDS011;40514;52.758;6.360;2022-08-21T14:11:18;8.15;;;2.30;;
54613;SDS011;40514;52.758;6.360;2022-08-21T14:13:45;6.85;;;2.20;;
54613;SDS011;40514;52.758;6.360;2022-08-21T14:16:41;6.28;;;2.33;;
54613;SDS011;40514;52.758;6.360;2022-08-21T14:19:10;5.88;;;2.20;;
54613;SDS011;40514;52.758;6.360;2022-08-21T14:21:43;8.38;;;2.22;;
54613;SDS011;40514;52.758;6.360;2022-08-21T14:24:13;9.13;;;2.80;;
54613;SDS011;40514;52.758;6.360;2022-08-21T14:26:51;7.03;;;2.10;;
54613;SDS011;40514;52.758;6.360;2022-08-21T14:29:19;6.18;;;2.20;;
54613;SDS011;40514;52.758;6.360;2022-08-21T14:31:51;5.72;;;2.05;;
54613;SDS011;40514;52.758;6.360;2022-08-21T14:34:20;4.68;;;2.10;;
54613;SDS011;40514;52.758;6.360;2022-08-21T14:36:47;7.05;;;2.50;;
54613;SDS011;40514;52.758;6.360;2022-08-21T14:39:13;7.25;;;2.10;;
54613;SDS011;40514;52.758;6.360;2022-08-21T14:41:39;6.00;;;2.30;;
54613;SDS011;40514;52.758;6.360;2022-08-21T14:44:07;8.63;;;2.22;;
54613;SDS011;40514;52.758;6.360;2022-08-21T14:46:34;7.72;;;2.40;;
54613;SDS011;40514;52.758;6.360;2022-08-21T14:49:01;7.72;;;2.10;;
54613;SDS011;40514;52.758;6.360;2022-08-21T14:51:28;10.93;;;2.28;;
54613;SDS011;40514;52.758;6.360;2022-08-21T14:53:53;5.63;;;2.15;;
54613;SDS011;40514;52.758;6.360;2022-08-21T14:56:19;7.63;;;2.22;;
54613;SDS011;40514;52.758;6.360;2022-08-21T14:58:46;7.38;;;2.22;;
54613;SDS011;40514;52.758;6.360;2022-08-21T15:01:17;7.30;;;2.28;;
54613;SDS011;40514;52.758;6.360;2022-08-21T15:03:44;7.10;;;2.40;;
54613;SDS011;40514;52.758;6.360;2022-08-21T15:06:12;5.45;;;2.13;;
54613;SDS011;40514;52.758;6.360;2022-08-21T15:08:38;5.32;;;2.00;;
54613;SDS011;40514;52.758;6.360;2022-08-21T15:11:04;6.97;;;2.05;;
54613;SDS011;40514;52.758;6.360;2022-08-21T15:13:31;6.10;;;2.13;;
54613;SDS011;40514;52.758;6.360;2022-08-21T15:15:57;7.50;;;2.47;;
54613;SDS011;40514;52.758;6.360;2022-08-21T15:18:24;5.03;;;1.88;;
54613;SDS011;40514;52.758;6.360;2022-08-21T15:20:50;6.82;;;2.20;;
54613;SDS011;40514;52.758;6.360;2022-08-21T15:23:16;7.70;;;1.98;;
54613;SDS011;40514;52.758;6.360;2022-08-21T15:25:43;5.15;;;2.00;;
54613;SDS011;40514;52.758;6.360;2022-08-21T15:28:11;5.88;;;2.17;;
54613;SDS011;40514;52.758;6.360;2022-08-21T15:30:39;6.32;;;2.05;;
54613;SDS011;40514;52.758;6.360;2022-08-21T15:33:06;7.53;;;1.92;;
54613;SDS011;40514;52.758;6.360;2022-08-21T15:35:32;5.25;;;2.00;;
54613;SDS011;40514;52.758;6.360;2022-08-21T15:40:24;5.75;;;1.98;;
54613;SDS011;40514;52.758;6.360;2022-08-21T15:45:18;12.35;;;2.00;;
54613;SDS011;40514;52.758;6.360;2022-08-21T15:47:44;8.13;;;2.30;;
54613;SDS011;40514;52.758;6.360;2022-08-21T15:50:11;5.82;;;2.13;;
54613;SDS011;40514;52.758;6.360;2022-08-21T15:52:37;9.10;;;2.35;;
54613;SDS011;40514;52.758;6.360;2022-08-21T15:57:30;5.13;;;1.85;;
54613;SDS011;40514;52.758;6.360;2022-08-21T16:07:16;5.30;;;1.88;;
54613;SDS011;40514;52.758;6.360;2022-08-21T16:09:42;5.50;;;1.92;;
54613;SDS011;40514;52.758;6.360;2022-08-21T16:12:08;6.10;;;1.90;;
54613;SDS011;40514;52.758;6.360;2022-08-21T16:14:38;6.38;;;2.08;;
54613;SDS011;40514;52.758;6.360;2022-08-21T16:17:04;7.88;;;2.03;;
54613;SDS011;40514;52.758;6.360;2022-08-21T16:19:31;9.55;;;2.25;;
54613;SDS011;40514;52.758;6.360;2022-08-21T16:21:58;6.30;;;1.95;;
54613;SDS011;40514;52.758;6.360;2022-08-21T16:24:23;6.57;;;1.85;;
54613;SDS011;40514;52.758;6.360;2022-08-21T16:26:49;6.70;;;1.77;;
54613;SDS011;40514;52.758;6.360;2022-08-21T16:29:14;6.35;;;1.92;;
54613;SDS011;40514;52.758;6.360;2022-08-21T16:31:40;5.38;;;2.00;;
54613;SDS011;40514;52.758;6.360;2022-08-21T16:34:06;6.85;;;1.95;;
54613;SDS011;40514;52.758;6.360;2022-08-21T16:36:37;6.35;;;1.90;;
54613;SDS011;40514;52.758;6.360;2022-08-21T16:39:03;4.75;;;1.90;;
54613;SDS011;40514;52.758;6.360;2022-08-21T16:41:30;7.80;;;1.90;;